RKSSRKSO

Guest
Details From RKSS - Seoul Gimpo
To RKSO - OSAN AB
Flight Number -
Tags generated
Created
Modified
Stats Distance 30 nm / 56 km
Max Altitude 0 ft / 0 m
Waypoints 3
Social Downloads 1
Likes 0
Share VATSIM

Download

Looking for another format? Having issues loading an existing format? Contact us
Advertisement - Login to hide

Notes

Basic altitude profile: - Ascent Rate: 2500ft/min - Ascent Speed: 250kts - Cruise Altitude: 35000ft - Cruise Speed: 420kts - Descent Rate: 1500ft/min - Descent Speed: 250kts Options: - Use NATs: yes - Use PACOTS: yes - Use low airways: yes - Use high airways: yes

Route

RKSS OSN RKSO

ID Type Via Altitude Latitude Longitude Leg Dist Tot Dist Heading (true) Name
O RKSS APT - 0 ft / 0 m 37.55831˚ 126.79058˚ - 0 nm - Seoul Gimpo
OSN VOR - 0 ft / 0 m 37.09190˚ 127.02975˚ 30 nm 30 nm 158° / 158° OSAN VORTAC
O RKSO APT - 0 ft / 0 m 37.09062˚ 127.02959˚ 0 nm 30 nm 185° / 185° OSAN AB

Altitude Profile

Advertisement - Login to hide

RKSS

Details ICAO RKSS (GMP)
Name Seoul Gimpo
Region South Korea
Timezone Asia/Seoul (UTC+9.0)
Stats Elevation 58 ft / 18 m (AMSL)
Location 37.558310° 126.790584°
Runways 2
Magnetic Variation 8.397° W

METAR

RKSS 111700Z 33006KT CAVOK M12/M20 Q1029 NOSIG

Decode

TAF

TAF RKSS 111100Z 1112/1218 32008KT CAVOK TNM12/1121Z TXM03/1206Z

Decode

Departure Runways

ID Width Length Bearing (true) Bearing (mag) Surface Threshold Offset Overrun Length
14L 148 ft / 45 m 11,811 ft / 3,600 m 135.13° 143.53° Asphalt 0 ft / 0 m 394 ft / 120 m
14R 197 ft / 60 m 10,499 ft / 3,200 m 135.08° 143.48° Asphalt 0 ft / 0 m 390 ft / 119 m
32L 197 ft / 60 m 10,499 ft / 3,200 m 315.09° 323.49° Asphalt 0 ft / 0 m 385 ft / 117 m
32R 148 ft / 45 m 11,811 ft / 3,600 m 315.15° 323.55° Asphalt 0 ft / 0 m 394 ft / 120 m

RKSO

Details ICAO RKSO (OSN)
Name OSAN AB
Region South Korea
Timezone Asia/Seoul (UTC+9.0)
Stats Elevation 40 ft / 12 m (AMSL)
Location 37.090617° 127.029593°
Runways 1
Magnetic Variation 8.286° W

METAR

RKSO 111558Z 30006KT 7SM CLR M11/M12 A3036 RMK AO2A SLP285 T11061118 $

Decode

TAF

TAF TAF AMD RKSO 111646Z 1116/1217 30012KT 9999 FEW040 QNH3026INS TEMPO 1116/1117 30015G25KT BECMG 1117/1118 32012KT 9999 SKC QNH3038INS TXM02/1205Z TNM11/1121Z

Decode

Destination Runways

ID Width Length Bearing (true) Bearing (mag) Surface Threshold Offset Overrun Length
09 150 ft / 46 m 8,985 ft / 2,739 m 84.03° 92.32° Concrete 0 ft / 0 m 1,007 ft / 307 m
27 150 ft / 46 m 8,985 ft / 2,739 m 264.05° 272.34° Concrete 0 ft / 0 m 998 ft / 304 m

Approach Navaids

Runway Type Ident Frequency Range Bearing (true) Bearing (mag) Slope Elevation
09 Localiser ININ 111.30 MHz 18 nm / 33 km 84.09° 92.38° - 45 ft / 14 m (AMSL)
09 Glidescope ININ 111.30 MHz 10 nm / 19 km 84.00° 92.29° 3.00° 42 ft / 13 m (AMSL)
27 Localiser IOSN 111.30 MHz 18 nm / 33 km 264.02° 272.31° - 39 ft / 12 m (AMSL)
27 Glidescope IOSN 111.30 MHz 10 nm / 19 km 263.69° 271.98° 3.00° 51 ft / 16 m (AMSL)

Popular Alternatives